createdAt,value
2022-08-11T00:04:18.387Z,5.6
2022-08-11T00:09:18.397Z,6.2
2022-08-11T00:14:18.385Z,7.4
2022-08-11T00:19:18.394Z,11.9
2022-08-11T00:24:18.384Z,9.1
2022-08-11T00:29:18.399Z,12.1
2022-08-11T00:34:18.396Z,12.1
2022-08-11T00:39:18.422Z,8.5
2022-08-11T00:44:18.385Z,11.8
2022-08-11T00:49:18.402Z,13.3
2022-08-11T00:54:18.395Z,15.1
2022-08-11T00:59:35.587Z,13.3
2022-08-11T01:04:18.397Z,13.3
2022-08-11T01:09:22.727Z,15.5
2022-08-11T01:14:18.401Z,16.6
2022-08-11T01:19:18.396Z,17.0
2022-08-11T01:24:18.393Z,15.8
2022-08-11T01:29:18.402Z,16.0
2022-08-11T01:34:18.404Z,16.0
2022-08-11T01:39:18.726Z,14.3
2022-08-11T01:44:18.403Z,18.6
2022-08-11T01:49:29.153Z,18.8
2022-08-11T01:54:18.407Z,17.7
2022-08-11T01:59:18.390Z,17.4
2022-08-11T02:04:18.408Z,17.4
2022-08-11T02:09:18.950Z,16.7
2022-08-11T02:14:18.400Z,26.6
2022-08-11T02:19:18.408Z,20.3
2022-08-11T02:24:18.412Z,18.7
2022-08-11T02:29:18.408Z,17.5
2022-08-11T02:34:18.409Z,17.5
2022-08-11T02:39:18.428Z,16.9
2022-08-11T02:44:18.395Z,19.5
2022-08-11T02:49:18.407Z,24.2
2022-08-11T02:54:18.415Z,22.2
2022-08-11T02:59:18.424Z,21.5
2022-08-11T03:04:18.430Z,21.5
2022-08-11T03:09:18.425Z,22.4
2022-08-11T03:14:18.419Z,21.2
2022-08-11T03:19:18.417Z,27.1
2022-08-11T03:24:18.426Z,27.1
2022-08-11T03:29:24.951Z,22.8
2022-08-11T03:34:18.425Z,22.8
2022-08-11T03:39:18.468Z,22.7
2022-08-11T03:44:18.421Z,19.6
2022-08-11T03:49:18.435Z,20.4
2022-08-11T03:54:18.466Z,19.8
2022-08-11T03:59:18.418Z,21.5
2022-08-11T04:04:18.449Z,21.5
2022-08-11T04:09:18.418Z,20.4
2022-08-11T04:14:18.433Z,22.8
2022-08-11T04:19:18.433Z,24.8
2022-08-11T04:24:38.178Z,21.0
2022-08-11T04:29:18.428Z,17.8
2022-08-11T04:34:18.459Z,17.8
2022-08-11T04:39:18.442Z,16.7
2022-08-11T04:44:18.437Z,15.8
2022-08-11T04:49:24.213Z,16.5
2022-08-11T04:54:18.436Z,21.2
2022-08-11T04:59:18.430Z,20.1
2022-08-11T05:04:18.464Z,20.1
2022-08-11T05:09:18.428Z,25.7
2022-08-11T05:14:18.438Z,22.6
2022-08-11T05:19:18.434Z,22.7
2022-08-11T05:24:18.440Z,24.3
2022-08-11T05:29:19.714Z,23.4
2022-08-11T05:34:18.441Z,23.4
2022-08-11T05:39:18.464Z,17.7
2022-08-11T05:44:21.203Z,21.6
2022-08-11T05:49:18.453Z,20.8
2022-08-11T05:54:28.437Z,19.4
2022-08-11T05:59:18.427Z,23.9
2022-08-11T06:04:18.442Z,23.9
2022-08-11T06:09:18.428Z,20.5
2022-08-11T06:14:18.443Z,22.2
2022-08-11T06:19:18.450Z,20.2
2022-08-11T06:24:18.442Z,19.9
2022-08-11T06:29:18.434Z,17.6
2022-08-11T06:34:27.336Z,17.6
2022-08-11T06:39:18.485Z,17.2
2022-08-11T06:44:18.449Z,14.3
2022-08-11T06:49:18.441Z,14.2
2022-08-11T06:54:18.450Z,14.4
2022-08-11T06:59:18.433Z,16.1
2022-08-11T07:04:18.440Z,16.1
2022-08-11T07:09:18.450Z,18.8
2022-08-11T07:14:18.443Z,14.8
2022-08-11T07:19:18.466Z,16.1
2022-08-11T07:24:18.432Z,14.2
2022-08-11T07:29:18.463Z,13.7
2022-08-11T07:34:18.648Z,13.7
2022-08-11T07:39:18.548Z,11.1
2022-08-11T07:44:18.487Z,16.5
2022-08-11T07:49:18.439Z,14.3
2022-08-11T07:54:18.444Z,10.2
2022-08-11T07:59:18.457Z,11.9
2022-08-11T08:04:18.435Z,11.9
2022-08-11T08:09:18.483Z,12.4
2022-08-11T08:14:18.453Z,7.9
2022-08-11T08:19:18.449Z,9.5
2022-08-11T08:24:18.446Z,10.3
2022-08-11T08:29:18.453Z,6.4
2022-08-11T08:34:18.475Z,6.4
2022-08-11T08:39:18.480Z,5.3
2022-08-11T08:44:37.748Z,7.8
2022-08-11T08:49:18.448Z,10.1
2022-08-11T08:54:18.446Z,5.6
2022-08-11T08:59:18.443Z,5.1
2022-08-11T09:04:20.936Z,5.1
2022-08-11T09:09:18.477Z,5.3
2022-08-11T09:14:18.456Z,9.1
2022-08-11T09:19:18.449Z,4.9
2022-08-11T09:24:25.869Z,7.5
2022-08-11T09:29:18.446Z,3.7
2022-08-11T09:34:18.449Z,3.7
2022-08-11T09:39:18.530Z,5.1
2022-08-11T09:44:18.451Z,9.9
2022-08-11T09:49:18.457Z,2.1
2022-08-11T09:54:18.465Z,3.3
2022-08-11T09:59:18.449Z,8.7
2022-08-11T10:04:18.484Z,8.7
2022-08-11T10:09:18.469Z,4.0
2022-08-11T10:14:33.489Z,2.9
2022-08-11T10:19:18.493Z,2.9
2022-08-11T10:24:18.478Z,4.4
2022-08-11T10:29:18.814Z,3.5
2022-08-11T10:34:19.075Z,3.5
2022-08-11T10:39:18.517Z,3.4
2022-08-11T10:44:18.452Z,3.8
2022-08-11T10:49:18.475Z,6.1
2022-08-11T10:54:18.469Z,7.1
2022-08-11T10:59:18.448Z,8.1
2022-08-11T11:04:18.459Z,8.1
2022-08-11T11:09:18.453Z,3.8
2022-08-11T11:14:18.441Z,3.9
2022-08-11T11:19:18.467Z,2.6
2022-08-11T11:24:18.452Z,4.6
2022-08-11T11:29:18.462Z,4.3
2022-08-11T11:34:20.041Z,4.3
2022-08-11T11:39:18.468Z,5.5
2022-08-11T11:44:18.470Z,3.0
2022-08-11T11:49:18.464Z,2.1
2022-08-11T11:54:18.493Z,3.8
2022-08-11T11:59:18.449Z,3.2
2022-08-11T12:04:18.461Z,3.2
2022-08-11T12:09:18.484Z,2.2
2022-08-11T12:14:18.478Z,2.3
2022-08-11T12:19:18.446Z,2.7
2022-08-11T12:24:18.458Z,1.2
2022-08-11T12:29:18.462Z,1.9
2022-08-11T12:34:18.495Z,1.9
2022-08-11T12:39:23.419Z,1.8
2022-08-11T12:44:21.088Z,2.6
2022-08-11T12:49:18.471Z,2.3
2022-08-11T12:54:18.467Z,3.0
2022-08-11T12:59:18.453Z,2.7
2022-08-11T13:04:18.476Z,2.7
2022-08-11T13:09:18.454Z,1.9
2022-08-11T13:14:18.456Z,2.8
2022-08-11T13:19:18.464Z,3.8
2022-08-11T13:24:18.465Z,5.1
2022-08-11T13:29:18.460Z,5.1
2022-08-11T13:34:18.478Z,5.9
2022-08-11T13:39:18.502Z,2.1
2022-08-11T13:44:23.177Z,2.2
2022-08-11T13:49:18.456Z,1.6
2022-08-11T13:54:18.458Z,2.8
2022-08-11T13:59:18.471Z,2.8
2022-08-11T14:04:29.888Z,2.6
2022-08-11T14:09:18.459Z,2.4
2022-08-11T14:14:18.460Z,1.8
2022-08-11T14:19:18.442Z,2.5
2022-08-11T14:24:18.455Z,1.5
2022-08-11T14:34:18.469Z,3.6
2022-08-11T14:39:18.640Z,1.6
2022-08-11T14:44:18.470Z,2.9
2022-08-11T14:49:18.452Z,4.3
2022-08-11T14:54:18.451Z,2.5
2022-08-11T14:59:18.477Z,2.5
2022-08-11T15:04:34.236Z,3.7
2022-08-11T15:09:18.448Z,1.9
2022-08-11T15:14:18.467Z,1.3
2022-08-11T15:19:18.441Z,2.8
2022-08-11T15:24:18.478Z,1.5
2022-08-11T15:29:23.017Z,1.5
2022-08-11T15:34:18.465Z,4.7
2022-08-11T15:39:20.158Z,2.1
2022-08-11T15:44:18.500Z,1.3
2022-08-11T15:49:21.819Z,1.5
2022-08-11T15:54:18.485Z,4.2
2022-08-11T15:59:42.458Z,4.2
2022-08-11T16:04:18.484Z,4.5
2022-08-11T16:09:19.227Z,3.0
2022-08-11T16:14:18.481Z,5.8
2022-08-11T16:19:18.483Z,1.8
2022-08-11T16:27:04.997Z,4.8
2022-08-11T16:29:18.535Z,4.8
2022-08-11T16:34:21.399Z,6.9
2022-08-11T16:39:18.540Z,3.6
2022-08-11T16:44:18.490Z,3.0
2022-08-11T16:49:18.491Z,11.0
2022-08-11T16:54:18.480Z,4.6
2022-08-11T16:59:18.592Z,4.6
2022-08-11T17:04:18.494Z,2.9
2022-08-11T17:09:18.480Z,6.2
2022-08-11T17:14:18.491Z,3.1
2022-08-11T17:19:18.491Z,2.1
2022-08-11T17:24:18.504Z,4.5
2022-08-11T17:29:18.488Z,4.5
2022-08-11T17:34:18.523Z,3.3
2022-08-11T17:39:18.572Z,5.7
2022-08-11T17:44:18.508Z,4.0
2022-08-11T17:49:18.513Z,5.4
2022-08-11T17:54:24.986Z,2.7
2022-08-11T17:59:18.493Z,2.7
2022-08-11T18:04:18.509Z,4.1
2022-08-11T18:09:18.515Z,3.3
2022-08-11T18:14:18.506Z,2.8
2022-08-11T18:19:18.510Z,3.9
2022-08-11T18:24:18.502Z,5.8
2022-08-11T18:29:18.512Z,5.8
2022-08-11T18:34:18.524Z,3.0
2022-08-11T18:39:18.543Z,4.3
2022-08-11T18:44:18.516Z,6.1
2022-08-11T18:49:18.518Z,4.4
2022-08-11T18:54:18.521Z,5.2
2022-08-11T18:59:18.519Z,5.2
2022-08-11T19:04:19.210Z,6.6
2022-08-11T19:09:18.524Z,4.1
2022-08-11T19:14:18.529Z,4.1
2022-08-11T19:19:18.525Z,7.9
2022-08-11T19:24:18.546Z,5.6
2022-08-11T19:30:04.986Z,5.6
2022-08-11T19:34:18.536Z,7.3
2022-08-11T19:39:18.571Z,5.6
2022-08-11T19:44:18.543Z,5.8
2022-08-11T19:49:18.541Z,9.0
2022-08-11T19:54:18.548Z,6.0
2022-08-11T19:59:18.542Z,6.0
2022-08-11T20:04:18.536Z,4.7
2022-08-11T20:09:18.562Z,7.2
2022-08-11T20:14:18.549Z,8.9
2022-08-11T20:19:18.582Z,8.5
2022-08-11T20:24:18.558Z,11.6
2022-08-11T20:29:18.581Z,11.6
2022-08-11T20:34:18.534Z,10.3
2022-08-11T20:39:18.626Z,10.6
2022-08-11T20:44:18.541Z,8.9
2022-08-11T20:49:18.542Z,9.3
2022-08-11T20:54:18.548Z,11.6
2022-08-11T20:59:21.972Z,11.6
2022-08-11T21:04:20.039Z,11.2
2022-08-11T21:09:19.606Z,7.8
2022-08-11T21:14:18.553Z,9.8
2022-08-11T21:19:18.541Z,8.2
2022-08-11T21:24:18.555Z,9.8
2022-08-11T21:29:18.536Z,9.8
2022-08-11T21:34:18.557Z,11.4
2022-08-11T21:39:18.601Z,9.8
2022-08-11T21:44:18.553Z,10.3
2022-08-11T21:49:18.536Z,7.8
2022-08-11T21:54:18.554Z,13.3
2022-08-11T21:59:18.545Z,13.3
2022-08-11T22:04:18.549Z,12.2
2022-08-11T22:09:18.548Z,13.3
2022-08-11T22:14:18.550Z,9.7
2022-08-11T22:19:18.540Z,14.7
2022-08-11T22:24:18.600Z,11.6
2022-08-11T22:29:18.535Z,11.6
2022-08-11T22:34:18.552Z,10.9
2022-08-11T22:39:18.599Z,15.5
2022-08-11T22:44:18.544Z,11.5
2022-08-11T22:49:18.560Z,12.4
2022-08-11T22:54:18.569Z,14.0
2022-08-11T22:59:18.553Z,14.0
2022-08-11T23:04:18.579Z,12.2
2022-08-11T23:09:18.568Z,16.7
2022-08-11T23:14:18.579Z,16.0
2022-08-11T23:20:06.344Z,13.8
2022-08-11T23:24:18.573Z,15.6
2022-08-11T23:29:18.564Z,15.6
2022-08-11T23:34:41.729Z,16.9
2022-08-11T23:39:18.623Z,15.8
2022-08-11T23:44:18.575Z,16.8
2022-08-11T23:49:18.580Z,14.7
2022-08-11T23:54:18.616Z,14.3
2022-08-11T23:59:18.580Z,14.3
